createdAt,value
2023-04-20T00:00:41.100Z,6.87
2023-04-20T00:01:41.133Z,6.87
2023-04-20T00:02:41.098Z,6.86
2023-04-20T00:03:41.187Z,6.83
2023-04-20T00:04:41.283Z,6.82
2023-04-20T00:05:40.929Z,6.82
2023-04-20T00:06:41.046Z,6.86
2023-04-20T00:07:41.040Z,6.89
2023-04-20T00:08:40.963Z,6.87
2023-04-20T00:09:41.068Z,6.87
2023-04-20T00:10:40.859Z,6.86
2023-04-20T00:11:40.854Z,6.87
2023-04-20T00:12:40.974Z,6.87
2023-04-20T00:13:40.865Z,6.87
2023-04-20T00:14:41.035Z,6.87
2023-04-20T00:15:40.860Z,6.87
2023-04-20T00:16:40.840Z,6.89
2023-04-20T00:17:40.853Z,6.90
2023-04-20T00:18:41.080Z,6.89
2023-04-20T00:19:40.827Z,6.90
2023-04-20T00:20:41.076Z,6.87
2023-04-20T00:21:41.418Z,6.87
2023-04-20T00:22:40.838Z,6.87
2023-04-20T00:23:40.692Z,6.89
2023-04-20T00:24:40.773Z,6.86
2023-04-20T00:25:40.871Z,6.86
2023-04-20T00:26:40.663Z,6.86
2023-04-20T00:27:40.650Z,6.89
2023-04-20T00:28:40.643Z,6.87
2023-04-20T00:29:40.627Z,6.82
2023-04-20T00:30:40.729Z,6.83
2023-04-20T00:31:40.607Z,6.81
2023-04-20T00:32:40.656Z,6.81
2023-04-20T00:33:40.587Z,6.82
2023-04-20T00:34:40.570Z,6.83
2023-04-20T00:35:40.583Z,6.87
2023-04-20T00:36:40.629Z,6.86
2023-04-20T00:37:40.542Z,6.83
2023-04-20T00:38:40.512Z,6.86
2023-04-20T00:39:40.533Z,6.87
2023-04-20T00:40:40.490Z,6.87
2023-04-20T00:41:40.512Z,6.83
2023-04-20T00:42:40.468Z,6.82
2023-04-20T00:43:40.458Z,6.81
2023-04-20T00:44:40.440Z,6.79
2023-04-20T00:45:40.462Z,6.78
2023-04-20T00:46:40.509Z,6.76
2023-04-20T00:47:40.577Z,6.76
2023-04-20T00:48:40.379Z,6.76
2023-04-20T00:49:40.412Z,6.76
2023-04-20T00:50:40.397Z,6.78
2023-04-20T00:51:40.443Z,6.76
2023-04-20T00:52:40.353Z,6.78
2023-04-20T00:53:40.330Z,6.81
2023-04-20T00:54:40.333Z,6.79
2023-04-20T00:55:40.319Z,6.81
2023-04-20T00:56:40.298Z,6.79
2023-04-20T00:57:40.299Z,6.81
2023-04-20T00:58:40.359Z,6.79
2023-04-20T00:59:40.280Z,6.79
2023-04-20T01:00:40.270Z,6.81
2023-04-20T01:01:40.303Z,6.81
2023-04-20T01:02:40.385Z,6.82
2023-04-20T01:03:40.513Z,6.81
2023-04-20T01:04:40.384Z,6.81
2023-04-20T01:05:40.171Z,6.81
2023-04-20T01:06:40.196Z,6.78
2023-04-20T01:07:40.152Z,6.78
2023-04-20T01:08:40.156Z,6.75
2023-04-20T01:09:40.193Z,6.73
2023-04-20T01:10:40.158Z,6.71
2023-04-20T01:11:40.102Z,6.71
2023-04-20T01:12:40.093Z,6.68
2023-04-20T01:13:40.124Z,6.68
2023-04-20T01:14:40.093Z,6.68
2023-04-20T01:15:40.832Z,6.65
2023-04-20T01:16:40.123Z,6.65
2023-04-20T01:17:40.202Z,6.68
2023-04-20T01:18:40.011Z,6.71
2023-04-20T01:19:40.008Z,6.68
2023-04-20T01:20:39.991Z,6.68
2023-04-20T01:21:39.995Z,6.68
2023-04-20T01:22:39.981Z,6.65
2023-04-20T01:23:39.953Z,6.64
2023-04-20T01:24:40.030Z,6.63
2023-04-20T01:25:40.019Z,6.60
2023-04-20T01:26:39.959Z,6.57
2023-04-20T01:27:39.911Z,6.55
2023-04-20T01:28:39.906Z,6.54
2023-04-20T01:29:39.924Z,6.51
2023-04-20T01:30:39.878Z,6.48
2023-04-20T01:31:39.921Z,6.46
2023-04-20T01:32:39.907Z,6.45
2023-04-20T01:33:39.821Z,6.48
2023-04-20T01:34:39.837Z,6.48
2023-04-20T01:35:39.826Z,6.48
2023-04-20T01:36:39.812Z,6.50
2023-04-20T01:37:39.807Z,6.50
2023-04-20T01:38:39.781Z,6.54
2023-04-20T01:39:39.821Z,6.55
2023-04-20T01:40:39.758Z,6.53
2023-04-20T01:41:39.776Z,6.54
2023-04-20T01:42:39.739Z,6.53
2023-04-20T01:43:39.810Z,6.55
2023-04-20T01:44:39.739Z,6.58
2023-04-20T01:45:39.718Z,6.58
2023-04-20T01:46:39.707Z,6.61
2023-04-20T01:47:39.734Z,6.55
2023-04-20T01:48:39.719Z,6.55
2023-04-20T01:49:39.735Z,6.54
2023-04-20T01:50:39.629Z,6.55
2023-04-20T01:51:39.613Z,6.53
2023-04-20T01:52:39.611Z,6.51
2023-04-20T01:53:39.583Z,6.51
2023-04-20T01:54:39.612Z,6.48
2023-04-20T01:55:39.576Z,6.45
2023-04-20T01:56:39.565Z,6.45
2023-04-20T01:57:39.550Z,6.46
2023-04-20T01:58:39.537Z,6.43
2023-04-20T01:59:39.518Z,6.45
2023-04-20T02:00:39.528Z,6.42
2023-04-20T02:01:39.512Z,6.42
2023-04-20T02:02:39.640Z,6.40
2023-04-20T02:03:39.657Z,6.40
2023-04-20T02:04:39.478Z,6.40
2023-04-20T02:05:39.472Z,6.42
2023-04-20T02:06:39.425Z,6.42
2023-04-20T02:07:39.461Z,6.43
2023-04-20T02:08:39.446Z,6.45
2023-04-20T02:09:39.405Z,6.50
2023-04-20T02:10:39.419Z,6.50
2023-04-20T02:11:39.374Z,6.51
2023-04-20T02:12:39.425Z,6.51
2023-04-20T02:13:39.381Z,6.55
2023-04-20T02:14:39.374Z,6.57
2023-04-20T02:15:39.365Z,6.57
2023-04-20T02:16:39.391Z,6.55
2023-04-20T02:17:39.319Z,6.55
2023-04-20T02:18:39.321Z,6.60
2023-04-20T02:19:39.265Z,6.60
2023-04-20T02:20:39.265Z,6.61
2023-04-20T02:21:39.230Z,6.61
2023-04-20T02:22:39.251Z,6.60
2023-04-20T02:23:39.224Z,6.61
2023-04-20T02:24:39.251Z,6.61
2023-04-20T02:25:39.203Z,6.63
2023-04-20T02:26:39.206Z,6.61
2023-04-20T02:27:39.169Z,6.61
2023-04-20T02:28:39.238Z,6.60
2023-04-20T02:29:39.151Z,6.60
2023-04-20T02:30:39.143Z,6.61
2023-04-20T02:31:39.180Z,6.63
2023-04-20T02:32:39.170Z,6.61
2023-04-20T02:33:39.094Z,6.64
2023-04-20T02:34:39.093Z,6.64
2023-04-20T02:35:39.060Z,6.64
2023-04-20T02:36:39.099Z,6.64
2023-04-20T02:37:39.036Z,6.65
2023-04-20T02:38:39.062Z,6.65
2023-04-20T02:39:39.036Z,6.65
2023-04-20T02:40:39.048Z,6.68
2023-04-20T02:41:39.009Z,6.68
2023-04-20T02:42:39.009Z,6.68
2023-04-20T02:43:38.961Z,6.68
2023-04-20T02:44:38.996Z,6.69
2023-04-20T02:45:38.963Z,6.71
2023-04-20T02:46:38.971Z,6.72
2023-04-20T02:47:38.916Z,6.65
2023-04-20T02:48:38.906Z,6.68
2023-04-20T02:49:38.917Z,6.71
2023-04-20T02:50:38.893Z,6.71
2023-04-20T02:51:38.897Z,6.71
2023-04-20T02:52:38.861Z,6.75
2023-04-20T02:53:38.835Z,6.76
2023-04-20T02:54:38.848Z,6.76
2023-04-20T02:55:38.824Z,6.76
2023-04-20T02:56:38.831Z,6.75
2023-04-20T02:57:38.831Z,6.75
2023-04-20T02:58:38.827Z,6.73
2023-04-20T02:59:38.790Z,6.73
2023-04-20T03:00:38.781Z,6.72
2023-04-20T03:01:38.781Z,6.75
2023-04-20T03:02:38.874Z,6.75
2023-04-20T03:03:38.921Z,6.76
2023-04-20T03:04:38.808Z,6.78
2023-04-20T03:05:38.712Z,6.79
2023-04-20T03:06:39.001Z,6.81
2023-04-20T03:07:38.717Z,6.81
2023-04-20T03:08:38.660Z,6.81
2023-04-20T03:09:38.687Z,6.79
2023-04-20T03:10:38.681Z,6.79
2023-04-20T03:11:38.672Z,6.78
2023-04-20T03:12:38.638Z,6.78
2023-04-20T03:13:38.651Z,6.78
2023-04-20T03:14:38.616Z,6.78
2023-04-20T03:15:38.577Z,6.76
2023-04-20T03:16:38.659Z,6.76
2023-04-20T03:17:38.679Z,6.76
2023-04-20T03:18:38.574Z,6.75
2023-04-20T03:19:38.568Z,6.75
2023-04-20T03:20:38.577Z,6.76
2023-04-20T03:21:38.537Z,6.79
2023-04-20T03:22:38.536Z,6.78
2023-04-20T03:23:38.527Z,6.78
2023-04-20T03:24:38.518Z,6.79
2023-04-20T03:25:38.475Z,6.76
2023-04-20T03:26:38.461Z,6.76
2023-04-20T03:27:38.452Z,6.78
2023-04-20T03:28:38.450Z,6.79
2023-04-20T03:29:38.429Z,6.76
2023-04-20T03:30:38.435Z,6.76
2023-04-20T03:31:38.470Z,6.78
2023-04-20T03:32:38.447Z,6.78
2023-04-20T03:33:38.410Z,6.76
2023-04-20T03:34:38.327Z,6.75
2023-04-20T03:35:38.368Z,6.76
2023-04-20T03:36:38.308Z,6.78
2023-04-20T03:37:38.328Z,6.78
2023-04-20T03:38:38.319Z,6.78
2023-04-20T03:39:38.283Z,6.79
2023-04-20T03:40:38.329Z,6.78
2023-04-20T03:41:38.255Z,6.79
2023-04-20T03:42:38.276Z,6.81
2023-04-20T03:43:38.276Z,6.82
2023-04-20T03:44:38.212Z,6.81
2023-04-20T03:45:38.254Z,6.86
2023-04-20T03:46:38.198Z,6.82
2023-04-20T03:47:38.269Z,6.82
2023-04-20T03:48:38.165Z,6.82
2023-04-20T03:49:38.177Z,6.78
2023-04-20T03:50:38.156Z,6.78
2023-04-20T03:51:38.139Z,6.76
2023-04-20T03:52:38.108Z,6.76
2023-04-20T03:53:39.528Z,6.78
2023-04-20T03:54:38.174Z,6.78
2023-04-20T03:55:38.118Z,6.81
2023-04-20T03:56:38.091Z,6.79
2023-04-20T03:57:38.089Z,6.79
2023-04-20T03:58:38.051Z,6.82
2023-04-20T03:59:38.037Z,6.81
2023-04-20T04:00:38.058Z,6.82
2023-04-20T04:01:38.014Z,6.81
2023-04-20T04:02:38.556Z,6.81
2023-04-20T04:03:38.248Z,6.79
2023-04-20T04:04:38.066Z,6.76
2023-04-20T04:05:37.988Z,6.81
2023-04-20T04:06:37.970Z,6.79
2023-04-20T04:07:37.965Z,6.81
2023-04-20T04:08:37.961Z,6.83
2023-04-20T04:09:37.985Z,6.86
2023-04-20T04:10:37.983Z,6.87
2023-04-20T04:11:37.893Z,6.87
2023-04-20T04:12:37.878Z,6.86
2023-04-20T04:13:37.878Z,6.87
2023-04-20T04:14:37.865Z,6.89
2023-04-20T04:15:37.851Z,6.89
2023-04-20T04:16:37.841Z,6.87
2023-04-20T04:17:37.959Z,6.87
2023-04-20T04:18:37.790Z,6.87
2023-04-20T04:19:37.774Z,6.90
2023-04-20T04:20:37.765Z,6.91
2023-04-20T04:21:37.837Z,6.89
2023-04-20T04:22:37.752Z,6.89
2023-04-20T04:23:37.757Z,6.89
2023-04-20T04:24:37.726Z,6.90
2023-04-20T04:25:37.745Z,6.90
2023-04-20T04:26:37.721Z,6.90
2023-04-20T04:27:37.695Z,6.91
2023-04-20T04:28:37.785Z,6.91
2023-04-20T04:29:37.684Z,6.93
2023-04-20T04:30:37.684Z,6.91
2023-04-20T04:31:37.973Z,6.93
2023-04-20T04:32:37.743Z,6.94
2023-04-20T04:33:37.605Z,6.93
2023-04-20T04:34:37.629Z,6.93
2023-04-20T04:35:37.644Z,6.93
2023-04-20T04:36:37.596Z,6.93
2023-04-20T04:37:37.602Z,6.93
2023-04-20T04:38:37.544Z,6.93
2023-04-20T04:39:37.524Z,6.94
2023-04-20T04:40:37.558Z,6.94
2023-04-20T04:41:37.502Z,6.93
2023-04-20T04:42:37.516Z,6.93
2023-04-20T04:43:37.489Z,6.94
2023-04-20T04:44:37.470Z,7.00
2023-04-20T04:45:37.484Z,7.04
2023-04-20T04:46:37.501Z,7.04
2023-04-20T04:47:37.521Z,7.01
2023-04-20T04:48:37.433Z,7.00
2023-04-20T04:49:37.428Z,7.00
2023-04-20T04:50:37.410Z,7.00
2023-04-20T04:51:37.410Z,7.00
2023-04-20T04:52:37.400Z,7.04
2023-04-20T04:53:37.353Z,7.07
2023-04-20T04:54:37.357Z,7.05
2023-04-20T04:55:37.367Z,7.05
2023-04-20T04:56:37.336Z,7.07
2023-04-20T04:57:37.360Z,7.00
2023-04-20T04:58:37.329Z,7.01
2023-04-20T04:59:37.318Z,7.01
2023-04-20T05:00:37.295Z,7.04
2023-04-20T05:01:37.404Z,7.05
2023-04-20T05:02:37.389Z,7.07
2023-04-20T05:03:37.356Z,7.07
2023-04-20T05:04:37.333Z,7.05
2023-04-20T05:05:37.234Z,7.05
2023-04-20T05:06:37.198Z,7.08
2023-04-20T05:07:37.181Z,7.11
2023-04-20T05:08:37.193Z,7.14
2023-04-20T05:09:37.149Z,7.16
2023-04-20T05:10:37.182Z,7.18
2023-04-20T05:11:37.120Z,7.19
2023-04-20T05:12:37.142Z,7.18
2023-04-20T05:13:37.117Z,7.19
2023-04-20T05:14:37.115Z,7.21
2023-04-20T05:15:37.152Z,7.24
2023-04-20T05:16:37.094Z,7.30
2023-04-20T05:17:37.086Z,7.33
2023-04-20T05:18:37.028Z,7.30
2023-04-20T05:19:37.024Z,7.27
2023-04-20T05:20:37.006Z,7.30
2023-04-20T05:21:37.004Z,7.27
2023-04-20T05:22:36.965Z,7.29
2023-04-20T05:23:36.996Z,7.36
2023-04-20T05:24:36.952Z,7.48
2023-04-20T05:25:36.991Z,7.51
2023-04-20T05:26:36.999Z,7.48
2023-04-20T05:27:36.975Z,7.45
2023-04-20T05:28:36.894Z,7.41
2023-04-20T05:29:36.903Z,7.39
2023-04-20T05:30:36.920Z,7.41
2023-04-20T05:31:36.934Z,7.41
2023-04-20T05:32:36.920Z,7.41
2023-04-20T05:33:36.852Z,7.37
2023-04-20T05:34:36.824Z,7.30
2023-04-20T05:35:36.864Z,7.29
2023-04-20T05:36:36.817Z,7.27
2023-04-20T05:37:36.822Z,7.27
2023-04-20T05:38:36.890Z,7.29
2023-04-20T05:39:36.801Z,7.41
2023-04-20T05:40:36.811Z,7.45
2023-04-20T05:41:36.741Z,7.52
2023-04-20T05:42:36.719Z,7.58
2023-04-20T05:43:36.711Z,7.63
2023-04-20T05:44:36.700Z,7.58
2023-04-20T05:45:36.719Z,7.57
2023-04-20T05:46:36.740Z,7.55
2023-04-20T05:47:36.900Z,7.55
2023-04-20T05:48:36.664Z,7.52
2023-04-20T05:49:36.647Z,7.51
2023-04-20T05:50:36.648Z,7.51
2023-04-20T05:51:36.656Z,7.52
2023-04-20T05:52:36.581Z,7.52
2023-04-20T05:53:36.603Z,7.51
2023-04-20T05:54:36.571Z,7.50
2023-04-20T05:55:36.569Z,7.48
2023-04-20T05:56:36.535Z,7.45
2023-04-20T05:57:36.567Z,7.44
2023-04-20T05:58:36.537Z,7.41
2023-04-20T05:59:36.505Z,7.42
2023-04-20T06:00:36.532Z,7.39
2023-04-20T06:01:36.486Z,7.34
2023-04-20T06:02:36.946Z,7.34
2023-04-20T06:03:36.752Z,7.36
2023-04-20T06:04:36.756Z,7.37
2023-04-20T06:05:36.545Z,7.42
2023-04-20T06:06:36.451Z,7.44
2023-04-20T06:07:36.413Z,7.47
2023-04-20T06:08:36.429Z,7.54
2023-04-20T06:09:36.418Z,7.58
2023-04-20T06:10:36.387Z,7.63
2023-04-20T06:11:36.361Z,7.69
2023-04-20T06:12:36.348Z,7.71
2023-04-20T06:13:36.337Z,7.70
2023-04-20T06:14:36.303Z,7.70
2023-04-20T06:15:36.370Z,7.71
2023-04-20T06:16:36.382Z,7.67
2023-04-20T06:17:36.363Z,7.69
2023-04-20T06:18:36.255Z,7.67
2023-04-20T06:19:36.252Z,7.62
2023-04-20T06:20:36.263Z,7.60
2023-04-20T06:21:36.295Z,7.60
2023-04-20T06:22:36.250Z,7.62
2023-04-20T06:23:36.249Z,7.63
2023-04-20T06:24:36.194Z,7.69
2023-04-20T06:25:36.319Z,7.73
2023-04-20T06:26:36.198Z,7.71
2023-04-20T06:27:36.139Z,7.74
2023-04-20T06:28:36.140Z,7.73
2023-04-20T06:29:36.134Z,7.73
2023-04-20T06:30:36.189Z,7.77
2023-04-20T06:31:36.196Z,7.77
2023-04-20T06:32:36.175Z,7.81
2023-04-20T06:33:36.094Z,7.81
2023-04-20T06:34:36.043Z,7.79
2023-04-20T06:35:36.015Z,7.77
2023-04-20T06:36:36.013Z,7.76
2023-04-20T06:37:36.016Z,7.76
2023-04-20T06:38:35.996Z,7.71
2023-04-20T06:39:35.978Z,7.73
2023-04-20T06:40:35.968Z,7.74
2023-04-20T06:41:35.981Z,7.76
2023-04-20T06:42:35.970Z,7.81
2023-04-20T06:43:35.936Z,7.82
2023-04-20T06:44:35.910Z,7.81
2023-04-20T06:45:35.898Z,7.79
2023-04-20T06:46:35.904Z,7.77
2023-04-20T06:47:35.961Z,7.79
2023-04-20T06:48:35.887Z,7.82
2023-04-20T06:49:35.868Z,7.88
2023-04-20T06:50:35.859Z,7.92
2023-04-20T06:51:35.839Z,7.94
2023-04-20T06:52:35.790Z,8.00
2023-04-20T06:53:35.796Z,8.07
2023-04-20T06:54:36.484Z,8.13
2023-04-20T06:55:35.767Z,8.12
2023-04-20T06:56:35.874Z,8.14
2023-04-20T06:57:35.729Z,8.20
2023-04-20T06:58:35.745Z,8.20
2023-04-20T06:59:35.727Z,8.18
2023-04-20T07:00:35.731Z,8.20
2023-04-20T07:01:35.718Z,8.17
2023-04-20T07:02:35.820Z,8.21
2023-04-20T07:03:35.818Z,8.22
2023-04-20T07:04:35.748Z,8.21
2023-04-20T07:05:35.656Z,8.14
2023-04-20T07:06:35.662Z,8.17
2023-04-20T07:07:35.647Z,8.18
2023-04-20T07:08:35.600Z,8.27
2023-04-20T07:09:35.672Z,8.34
2023-04-20T07:10:35.567Z,8.46
2023-04-20T07:11:35.578Z,8.54
2023-04-20T07:12:35.549Z,8.63
2023-04-20T07:13:35.528Z,8.67
2023-04-20T07:14:35.544Z,8.70
2023-04-20T07:15:35.509Z,8.78
2023-04-20T07:16:35.554Z,8.76
2023-04-20T07:17:35.534Z,8.78
2023-04-20T07:18:35.822Z,8.73
2023-04-20T07:19:35.491Z,8.75
2023-04-20T07:20:35.492Z,8.78
2023-04-20T07:21:35.528Z,8.79
2023-04-20T07:22:35.417Z,8.75
2023-04-20T07:23:35.461Z,8.73
2023-04-20T07:24:35.403Z,8.67
2023-04-20T07:25:35.379Z,8.58
2023-04-20T07:26:35.390Z,8.50
2023-04-20T07:27:35.353Z,8.46
2023-04-20T07:28:35.347Z,8.43
2023-04-20T07:29:35.325Z,8.37
2023-04-20T07:30:35.327Z,8.34
2023-04-20T07:31:35.622Z,8.36
2023-04-20T07:32:35.321Z,8.40
2023-04-20T07:33:35.266Z,8.46
2023-04-20T07:34:35.280Z,8.50
2023-04-20T07:35:35.249Z,8.55
2023-04-20T07:36:35.285Z,8.64
2023-04-20T07:37:35.237Z,8.67
2023-04-20T07:38:35.208Z,8.71
2023-04-20T07:39:35.204Z,8.76
2023-04-20T07:40:35.195Z,8.75
2023-04-20T07:41:35.175Z,8.73
2023-04-20T07:42:36.196Z,8.75
2023-04-20T07:43:35.214Z,8.73
2023-04-20T07:44:35.212Z,8.68
2023-04-20T07:45:35.170Z,8.63
2023-04-20T07:46:35.132Z,8.64
2023-04-20T07:47:35.298Z,8.64
2023-04-20T07:48:35.195Z,8.61
2023-04-20T07:49:35.068Z,8.65
2023-04-20T07:50:35.140Z,8.68
2023-04-20T07:51:35.053Z,8.71
2023-04-20T07:52:35.044Z,8.78
2023-04-20T07:53:35.031Z,8.80
2023-04-20T07:54:35.063Z,8.88
2023-04-20T07:55:34.988Z,8.94
2023-04-20T07:56:35.020Z,8.97
2023-04-20T07:57:34.948Z,9.01
2023-04-20T07:58:34.959Z,9.01
2023-04-20T07:59:34.927Z,9.06
2023-04-20T08:00:35.832Z,9.06
2023-04-20T08:01:35.091Z,9.03
2023-04-20T08:02:35.049Z,9.06
2023-04-20T08:03:35.039Z,9.16
2023-04-20T08:04:35.273Z,9.20
2023-04-20T08:05:34.997Z,9.24
2023-04-20T08:06:35.108Z,9.19
2023-04-20T08:07:34.844Z,9.15
2023-04-20T08:08:34.835Z,9.20
2023-04-20T08:09:35.918Z,9.17
2023-04-20T08:10:35.169Z,9.12
2023-04-20T08:11:34.804Z,9.19
2023-04-20T08:12:34.793Z,9.24
2023-04-20T08:13:34.780Z,9.27
2023-04-20T08:14:34.826Z,9.32
2023-04-20T08:15:34.771Z,9.40
2023-04-20T08:16:34.951Z,9.52
2023-04-20T08:17:34.795Z,9.55
2023-04-20T08:18:34.700Z,9.62
2023-04-20T08:19:34.696Z,9.59
2023-04-20T08:20:35.133Z,9.60
2023-04-20T08:21:34.698Z,9.65
2023-04-20T08:22:34.655Z,9.73
2023-04-20T08:23:34.630Z,9.89
2023-04-20T08:24:34.643Z,9.95
2023-04-20T08:25:34.626Z,10.04
2023-04-20T08:26:34.611Z,10.02
2023-04-20T08:27:34.622Z,10.01
2023-04-20T08:28:34.650Z,9.93
2023-04-20T08:29:34.557Z,9.86
2023-04-20T08:30:34.807Z,9.81
2023-04-20T08:31:34.569Z,9.75
2023-04-20T08:32:34.526Z,9.80
2023-04-20T08:33:34.504Z,9.91
2023-04-20T08:34:34.842Z,9.86
2023-04-20T08:35:34.463Z,9.83
2023-04-20T08:36:34.475Z,9.83
2023-04-20T08:37:34.469Z,9.85
2023-04-20T08:38:34.509Z,9.92
2023-04-20T08:39:34.532Z,9.92
2023-04-20T08:40:34.427Z,9.86
2023-04-20T08:41:34.473Z,9.81
2023-04-20T08:42:34.396Z,9.85
2023-04-20T08:43:34.373Z,9.85
2023-04-20T08:44:34.372Z,9.83
2023-04-20T08:45:34.338Z,9.78
2023-04-20T08:46:34.505Z,9.70
2023-04-20T08:47:34.369Z,9.55
2023-04-20T08:48:34.321Z,9.42
2023-04-20T08:49:34.283Z,9.37
2023-04-20T08:50:34.294Z,9.27
2023-04-20T08:51:34.301Z,9.26
2023-04-20T08:52:34.288Z,9.23
2023-04-20T08:53:34.290Z,9.24
2023-04-20T08:54:37.142Z,9.24
2023-04-20T08:55:34.250Z,9.26
2023-04-20T08:56:34.329Z,9.24
2023-04-20T08:57:34.211Z,9.24
2023-04-20T08:58:34.201Z,9.23
2023-04-20T08:59:34.182Z,9.19
2023-04-20T09:00:34.154Z,9.12
2023-04-20T09:01:36.183Z,9.10
2023-04-20T09:02:34.368Z,9.06
2023-04-20T09:03:34.266Z,8.98
2023-04-20T09:04:34.209Z,8.96
2023-04-20T09:05:34.097Z,8.96
2023-04-20T09:06:34.102Z,8.89
2023-04-20T09:07:34.085Z,8.78
2023-04-20T09:08:34.049Z,8.76
2023-04-20T09:09:34.045Z,8.70
2023-04-20T09:10:34.030Z,8.73
2023-04-20T09:11:34.047Z,8.76
2023-04-20T09:12:34.004Z,8.80
2023-04-20T09:13:34.031Z,8.83
2023-04-20T09:14:34.069Z,8.83
2023-04-20T09:15:33.958Z,8.88
2023-04-20T09:16:34.011Z,8.89
2023-04-20T09:17:33.976Z,8.93
2023-04-20T09:18:33.966Z,8.91
2023-04-20T09:19:33.893Z,8.94
2023-04-20T09:20:33.944Z,8.97
2023-04-20T09:21:33.902Z,8.94
2023-04-20T09:22:33.884Z,8.94
2023-04-20T09:23:33.869Z,8.93
2023-04-20T09:24:33.852Z,8.91
2023-04-20T09:25:33.826Z,8.93
2023-04-20T09:26:33.837Z,8.94
2023-04-20T09:27:33.831Z,8.94
2023-04-20T09:28:33.801Z,8.93
2023-04-20T09:29:33.805Z,8.89
2023-04-20T09:30:33.787Z,8.88
2023-04-20T09:31:33.841Z,8.85
2023-04-20T09:32:33.763Z,8.83
2023-04-20T09:33:33.738Z,8.86
2023-04-20T09:34:34.123Z,8.93
2023-04-20T09:35:33.744Z,8.91
2023-04-20T09:36:33.721Z,8.94
2023-04-20T09:37:33.696Z,9.00
2023-04-20T09:38:33.658Z,9.13
2023-04-20T09:39:33.682Z,9.17
2023-04-20T09:40:33.677Z,9.19
2023-04-20T09:41:33.832Z,9.23
2023-04-20T09:42:33.612Z,9.32
2023-04-20T09:43:33.620Z,9.34
2023-04-20T09:44:33.616Z,9.38
2023-04-20T09:45:33.608Z,9.49
2023-04-20T09:46:33.588Z,9.52
2023-04-20T09:47:33.576Z,9.59
2023-04-20T09:48:33.535Z,9.60
2023-04-20T09:49:33.519Z,9.60
2023-04-20T09:50:45.672Z,9.70
2023-04-20T09:51:34.502Z,9.78
2023-04-20T09:52:33.512Z,9.81
2023-04-20T09:53:33.508Z,9.89
2023-04-20T09:54:33.462Z,9.88
2023-04-20T09:55:33.486Z,9.93
2023-04-20T09:56:33.488Z,9.98
2023-04-20T09:57:33.463Z,10.02
2023-04-20T09:58:33.416Z,9.93
2023-04-20T09:59:33.405Z,9.95
2023-04-20T10:00:33.393Z,10.01
2023-04-20T10:01:33.413Z,10.01
2023-04-20T10:02:33.459Z,10.06
2023-04-20T10:03:33.492Z,10.17
2023-04-20T10:04:33.439Z,10.24
2023-04-20T10:05:33.297Z,10.32
2023-04-20T10:06:33.320Z,10.35
2023-04-20T10:07:33.291Z,10.29
2023-04-20T10:08:34.223Z,10.24
2023-04-20T10:09:33.317Z,10.25
2023-04-20T10:10:33.302Z,10.32
2023-04-20T10:11:41.212Z,10.39
2023-04-20T10:12:34.223Z,10.42
2023-04-20T10:13:33.216Z,10.51
2023-04-20T10:14:33.201Z,10.62
2023-04-20T10:15:33.173Z,10.76
2023-04-20T10:16:33.256Z,10.87
2023-04-20T10:17:33.286Z,10.98
2023-04-20T10:18:33.261Z,11.05
2023-04-20T10:19:33.416Z,11.02
2023-04-20T10:20:33.121Z,10.93
2023-04-20T10:21:33.100Z,10.90
2023-04-20T10:22:33.157Z,10.83
2023-04-20T10:23:34.025Z,10.83
2023-04-20T10:24:33.104Z,10.73
2023-04-20T10:25:33.066Z,10.76
2023-04-20T10:26:33.098Z,10.88
2023-04-20T10:27:33.087Z,10.88
2023-04-20T10:28:33.029Z,10.88
2023-04-20T10:29:35.109Z,10.93
2023-04-20T10:30:33.038Z,10.91
2023-04-20T10:31:33.066Z,10.80
2023-04-20T10:32:32.972Z,10.87
2023-04-20T10:33:33.069Z,10.91
2023-04-20T10:34:32.962Z,10.83
2023-04-20T10:35:32.919Z,10.80
2023-04-20T10:36:32.961Z,10.86
2023-04-20T10:37:33.021Z,10.90
2023-04-20T10:38:32.925Z,10.98
2023-04-20T10:39:32.914Z,11.05
2023-04-20T10:40:32.874Z,11.19
2023-04-20T10:41:32.848Z,11.35
2023-04-20T10:42:32.851Z,11.46
2023-04-20T10:43:32.830Z,11.56
2023-04-20T10:44:32.826Z,11.63
2023-04-20T10:45:32.795Z,11.75
2023-04-20T10:46:32.863Z,11.75
2023-04-20T10:47:32.843Z,11.66
2023-04-20T10:48:32.761Z,11.53
2023-04-20T10:49:32.768Z,11.59
2023-04-20T10:50:32.741Z,11.78
2023-04-20T10:51:32.742Z,11.82
2023-04-20T10:52:32.737Z,11.87
2023-04-20T10:53:32.703Z,11.87
2023-04-20T10:54:32.734Z,11.70
2023-04-20T10:55:32.671Z,11.67
2023-04-20T10:56:32.673Z,11.59
2023-04-20T10:57:32.637Z,11.51
2023-04-20T10:58:32.652Z,11.46
2023-04-20T10:59:32.607Z,11.38
2023-04-20T11:00:32.615Z,11.35
2023-04-20T11:01:32.685Z,11.30
2023-04-20T11:02:32.812Z,11.30
2023-04-20T11:03:32.673Z,11.28
2023-04-20T11:04:32.809Z,11.33
2023-04-20T11:05:32.539Z,11.36
2023-04-20T11:06:32.519Z,11.44
2023-04-20T11:08:53.150Z,11.60
2023-04-20T11:09:53.869Z,11.70
2023-04-20T11:10:54.293Z,11.82
2023-04-20T11:11:53.085Z,11.88
2023-04-20T11:12:53.087Z,11.93
2023-04-20T11:13:53.113Z,11.94
2023-04-20T11:14:53.091Z,11.93
2023-04-20T11:15:53.107Z,11.88
2023-04-20T11:16:53.113Z,11.85
2023-04-20T11:17:53.030Z,11.84
2023-04-20T11:18:53.016Z,11.74
2023-04-20T11:19:52.995Z,11.62
2023-04-20T11:20:53.963Z,11.63
2023-04-20T11:21:53.031Z,11.66
2023-04-20T11:22:54.746Z,11.77
2023-04-20T11:23:52.946Z,11.81
2023-04-20T11:24:53.376Z,11.70
2023-04-20T11:25:52.968Z,11.62
2023-04-20T11:26:52.999Z,11.56
2023-04-20T11:27:52.891Z,11.51
2023-04-20T11:28:55.186Z,11.49
2023-04-20T11:29:52.888Z,11.54
2023-04-20T11:30:52.855Z,11.59
2023-04-20T11:31:53.007Z,11.60
2023-04-20T11:32:52.971Z,11.66
2023-04-20T11:33:52.929Z,11.64
2023-04-20T11:34:56.066Z,11.70
2023-04-20T11:35:54.883Z,11.79
2023-04-20T11:36:52.771Z,11.88
2023-04-20T11:37:52.769Z,11.96
2023-04-20T11:38:52.747Z,11.90
2023-04-20T11:39:52.760Z,11.90
2023-04-20T11:40:53.130Z,11.88
2023-04-20T11:41:52.738Z,11.85
2023-04-20T11:42:52.693Z,11.82
2023-04-20T11:43:52.705Z,11.85
2023-04-20T11:44:52.666Z,11.85
2023-04-20T11:45:52.847Z,11.75
2023-04-20T11:46:53.116Z,11.78
2023-04-20T11:47:53.299Z,11.85
2023-04-20T11:48:53.101Z,11.88
2023-04-20T11:49:53.012Z,11.96
2023-04-20T11:50:52.614Z,11.97
2023-04-20T11:51:53.076Z,12.03
2023-04-20T11:52:52.575Z,12.13
2023-04-20T11:53:54.027Z,12.22
2023-04-20T11:54:52.550Z,12.22
2023-04-20T11:55:52.521Z,12.22
2023-04-20T11:56:52.544Z,12.23
2023-04-20T11:57:52.540Z,12.22
2023-04-20T11:58:52.704Z,12.30
2023-04-20T11:59:52.461Z,12.36
2023-04-20T12:00:52.460Z,12.43
2023-04-20T12:01:52.457Z,12.55
2023-04-20T12:02:52.602Z,12.59
2023-04-20T12:03:52.553Z,12.70
2023-04-20T12:04:52.492Z,12.79
2023-04-20T12:05:52.540Z,12.84
2023-04-20T12:06:52.480Z,12.81
2023-04-20T12:07:52.397Z,12.80
2023-04-20T12:08:52.403Z,12.80
2023-04-20T12:09:52.368Z,12.77
2023-04-20T12:10:52.399Z,12.80
2023-04-20T12:11:52.327Z,12.92
2023-04-20T12:12:52.343Z,13.07
2023-04-20T12:13:52.343Z,13.16
2023-04-20T12:14:52.312Z,13.25
2023-04-20T12:15:52.324Z,13.14
2023-04-20T12:16:52.355Z,12.89
2023-04-20T12:17:52.309Z,12.81
2023-04-20T12:18:52.263Z,12.94
2023-04-20T12:19:52.232Z,13.07
2023-04-20T12:20:52.227Z,13.17
2023-04-20T12:21:52.237Z,13.27
2023-04-20T12:22:52.224Z,13.41
2023-04-20T12:23:52.920Z,13.51
2023-04-20T12:24:52.715Z,13.48
2023-04-20T12:25:52.206Z,13.61
2023-04-20T12:26:52.288Z,13.73
2023-04-20T12:27:52.122Z,13.76
2023-04-20T12:28:52.126Z,13.83
2023-04-20T12:29:52.100Z,13.83
2023-04-20T12:30:52.112Z,13.83
2023-04-20T12:31:53.366Z,13.80
2023-04-20T12:32:52.071Z,13.75
2023-04-20T12:33:52.059Z,13.55
2023-04-20T12:34:52.058Z,13.48
2023-04-20T12:35:52.062Z,13.62
2023-04-20T12:36:52.050Z,13.80
2023-04-20T12:37:51.979Z,13.98
2023-04-20T12:38:52.003Z,14.13
2023-04-20T12:39:51.943Z,14.20
2023-04-20T12:40:51.942Z,14.17
2023-04-20T12:41:51.946Z,14.17
2023-04-20T12:42:51.928Z,14.17
2023-04-20T12:43:51.958Z,14.17
2023-04-20T12:44:51.885Z,14.30
2023-04-20T12:45:52.578Z,14.48
2023-04-20T12:46:51.936Z,14.52
2023-04-20T12:47:54.012Z,14.54
2023-04-20T12:48:51.829Z,14.45
2023-04-20T12:49:51.846Z,14.45
2023-04-20T12:50:51.831Z,14.45
2023-04-20T12:51:51.782Z,14.44
2023-04-20T12:52:51.776Z,14.27
2023-04-20T12:53:51.855Z,14.02
2023-04-20T12:54:51.764Z,14.06
2023-04-20T12:56:00.330Z,14.17
2023-04-20T12:56:52.721Z,14.36
2023-04-20T12:57:51.704Z,14.39
2023-04-20T12:58:51.704Z,14.41
2023-04-20T12:59:51.943Z,14.42
2023-04-20T13:00:52.535Z,14.44
2023-04-20T13:01:52.466Z,14.54
2023-04-20T13:02:51.774Z,14.53
2023-04-20T13:03:51.775Z,14.48
2023-04-20T13:04:51.747Z,14.45
2023-04-20T13:05:51.601Z,14.45
2023-04-20T13:06:51.729Z,14.46
2023-04-20T13:07:51.599Z,14.45
2023-04-20T13:08:51.816Z,14.48
2023-04-20T13:09:51.621Z,14.42
2023-04-20T13:10:51.558Z,14.38
2023-04-20T13:11:51.587Z,14.42
2023-04-20T13:12:52.123Z,14.46